createdAt,value
2023-01-29T00:01:34.451Z,101858.63
2023-01-29T00:04:03.247Z,101856.88
2023-01-29T00:06:29.628Z,101870.41
2023-01-29T00:08:56.012Z,101866.84
2023-01-29T00:11:24.118Z,101869.41
2023-01-29T00:13:51.148Z,101854.38
2023-01-29T00:16:17.601Z,101857.06
2023-01-29T00:18:49.190Z,101860.84
2023-01-29T00:21:22.009Z,101871.34
2023-01-29T00:23:49.195Z,101852.81
2023-01-29T00:26:19.382Z,101854.72
2023-01-29T00:28:45.877Z,101859.41
2023-01-29T00:31:18.758Z,101845.13
2023-01-29T00:33:45.661Z,101840.72
2023-01-29T00:36:36.768Z,101849.69
2023-01-29T00:39:10.532Z,101871.78
2023-01-29T00:41:59.164Z,101868.22
2023-01-29T00:44:46.575Z,101856.88
2023-01-29T00:47:31.071Z,101860.44
2023-01-29T00:50:00.498Z,101858.53
2023-01-29T00:52:29.605Z,101853.34
2023-01-29T00:54:58.584Z,101857.84
2023-01-29T00:57:27.665Z,101857.84
2023-01-29T00:59:56.675Z,101859.47
2023-01-29T01:02:42.322Z,101862.34
2023-01-29T01:05:17.695Z,101860.72
2023-01-29T01:07:46.211Z,101857.22
2023-01-29T01:10:22.156Z,101865.97
2023-01-29T01:12:56.506Z,101857.91
2023-01-29T01:15:25.963Z,101858.88
2023-01-29T01:17:54.529Z,101861.66
2023-01-29T01:20:21.711Z,101873.31
2023-01-29T01:22:48.409Z,101880.50
2023-01-29T01:25:15.444Z,101872.56
2023-01-29T01:27:41.956Z,101861.84
2023-01-29T01:30:11.721Z,101838.47
2023-01-29T01:32:41.952Z,101870.81
2023-01-29T01:35:10.155Z,101872.69
2023-01-29T01:37:39.515Z,101871.94
2023-01-29T01:40:17.992Z,101865.81
2023-01-29T01:42:47.810Z,101864.06
2023-01-29T01:45:33.509Z,101859.56
2023-01-29T01:48:27.337Z,101859.03
2023-01-29T01:50:58.775Z,101854.72
2023-01-29T01:53:40.507Z,101855.56
2023-01-29T01:56:11.529Z,101866.13
2023-01-29T01:58:42.504Z,101861.63
2023-01-29T02:01:09.871Z,101869.75
2023-01-29T02:04:03.238Z,101861.56
2023-01-29T02:06:49.929Z,101860.50
2023-01-29T02:09:39.523Z,101860.59
2023-01-29T02:12:09.210Z,101891.56
2023-01-29T02:14:40.889Z,101888.78
2023-01-29T02:17:10.262Z,101881.78
2023-01-29T02:19:46.627Z,101881.03
2023-01-29T02:22:44.059Z,101864.31
2023-01-29T02:25:33.501Z,101861.88
2023-01-29T02:28:15.256Z,101847.59
2023-01-29T02:31:00.363Z,101848.66
2023-01-29T02:33:41.173Z,101841.66
2023-01-29T02:36:15.910Z,101837.47
2023-01-29T02:38:55.318Z,101830.50
2023-01-29T02:41:53.338Z,101822.94
2023-01-29T02:44:32.835Z,101807.22
2023-01-29T02:47:57.074Z,101809.38
2023-01-29T02:50:34.637Z,101794.81
2023-01-29T02:53:30.042Z,101799.28
2023-01-29T02:56:26.929Z,101797.94
2023-01-29T02:59:05.433Z,101795.25
2023-01-29T03:01:49.280Z,101792.41
2023-01-29T03:04:24.649Z,101792.72
2023-01-29T03:07:36.452Z,101796.84
2023-01-29T03:10:06.322Z,101804.69
2023-01-29T03:12:39.639Z,101798.72
2023-01-29T03:15:16.957Z,101806.59
2023-01-29T03:18:07.686Z,101798.88
2023-01-29T03:20:48.822Z,101800.09
2023-01-29T03:23:24.161Z,101812.22
2023-01-29T03:26:14.492Z,101804.50
2023-01-29T03:29:01.810Z,101805.66
2023-01-29T03:31:48.290Z,101811.16
2023-01-29T03:34:28.323Z,101816.03
2023-01-29T03:36:59.977Z,101815.03
2023-01-29T03:39:29.429Z,101829.16
2023-01-29T03:42:13.503Z,101826.91
2023-01-29T03:45:00.337Z,101832.38
2023-01-29T03:47:40.754Z,101831.13
2023-01-29T03:50:12.738Z,101832.88
2023-01-29T03:53:04.916Z,101832.44
2023-01-29T03:55:43.965Z,101832.28
2023-01-29T03:58:32.368Z,101827.78
2023-01-29T04:01:03.127Z,101826.09
2023-01-29T04:03:42.404Z,101829.34
2023-01-29T04:06:16.714Z,101827.66
2023-01-29T04:09:05.014Z,101826.81
2023-01-29T04:11:36.130Z,101827.91
2023-01-29T04:14:02.783Z,101830.56
2023-01-29T04:16:34.914Z,101835.56
2023-01-29T04:19:01.464Z,101844.84
2023-01-29T04:21:29.357Z,101840.72
2023-01-29T04:23:55.892Z,101844.50
2023-01-29T04:26:28.490Z,101839.19
2023-01-29T04:29:33.635Z,101836.41
2023-01-29T04:32:18.713Z,101836.03
2023-01-29T04:35:03.351Z,101828.56
2023-01-29T04:37:42.268Z,101837.31
2023-01-29T04:40:25.757Z,101826.66
2023-01-29T04:43:07.579Z,101827.88
2023-01-29T04:45:36.869Z,101840.97
2023-01-29T04:48:20.866Z,101841.03
2023-01-29T04:51:24.953Z,101843.72
2023-01-29T04:54:19.009Z,101833.28
2023-01-29T04:56:58.902Z,101826.94
2023-01-29T04:59:39.565Z,101818.16
2023-01-29T05:02:08.244Z,101815.16
2023-01-29T05:04:38.664Z,101807.50
2023-01-29T05:07:12.754Z,101799.97
2023-01-29T05:09:45.345Z,101788.63
2023-01-29T05:12:36.325Z,101787.38
2023-01-29T05:15:07.983Z,101799.31
2023-01-29T05:17:39.693Z,101794.09
2023-01-29T05:20:09.107Z,101783.00
2023-01-29T05:22:40.783Z,101784.41
2023-01-29T05:25:22.089Z,101791.84
2023-01-29T05:28:09.833Z,101799.28
2023-01-29T05:30:38.656Z,101801.41
2023-01-29T05:33:12.547Z,101799.03
2023-01-29T05:35:39.254Z,101794.63
2023-01-29T05:38:09.483Z,101808.91
2023-01-29T05:40:36.506Z,101818.34
2023-01-29T05:43:06.069Z,101822.06
2023-01-29T05:45:33.255Z,101825.34
2023-01-29T05:48:00.402Z,101819.72
2023-01-29T05:50:27.631Z,101820.31
2023-01-29T05:53:06.119Z,101828.25
2023-01-29T05:55:32.964Z,101820.97
2023-01-29T05:58:05.607Z,101814.44
2023-01-29T06:00:35.544Z,101827.72
2023-01-29T06:03:09.674Z,101826.50
2023-01-29T06:05:40.383Z,101821.00
2023-01-29T06:08:07.921Z,101819.91
2023-01-29T06:10:39.247Z,101822.56
2023-01-29T06:13:05.802Z,101817.94
2023-01-29T06:15:32.458Z,101805.22
2023-01-29T06:17:59.397Z,101807.97
2023-01-29T06:20:27.176Z,101805.28
2023-01-29T06:22:56.571Z,101806.09
2023-01-29T06:25:23.052Z,101821.66
2023-01-29T06:27:52.569Z,101820.94
2023-01-29T06:30:19.348Z,101817.28
2023-01-29T06:32:45.903Z,101818.28
2023-01-29T06:35:12.479Z,101827.97
2023-01-29T06:37:38.885Z,101829.47
2023-01-29T06:40:08.530Z,101847.81
2023-01-29T06:42:40.600Z,101841.34
2023-01-29T06:45:07.669Z,101838.63
2023-01-29T06:47:40.937Z,101833.16
2023-01-29T06:50:07.598Z,101822.19
2023-01-29T06:52:41.486Z,101828.47
2023-01-29T06:55:08.747Z,101826.66
2023-01-29T06:57:35.385Z,101818.69
2023-01-29T07:00:02.735Z,101826.00
2023-01-29T07:02:31.857Z,101826.09
2023-01-29T07:05:01.596Z,101816.25
2023-01-29T07:07:28.258Z,101820.72
2023-01-29T07:09:57.159Z,101826.34
2023-01-29T07:12:23.595Z,101820.34
2023-01-29T07:15:01.022Z,101827.59
2023-01-29T07:17:27.704Z,101829.69
2023-01-29T07:19:56.956Z,101834.88
2023-01-29T07:22:24.137Z,101837.25
2023-01-29T07:24:56.402Z,101836.06
2023-01-29T07:27:25.742Z,101830.00
2023-01-29T07:29:52.495Z,101830.09
2023-01-29T07:32:19.339Z,101822.97
2023-01-29T07:34:46.179Z,101833.78
2023-01-29T07:37:12.568Z,101834.88
2023-01-29T07:39:39.268Z,101833.31
2023-01-29T07:42:09.494Z,101840.59
2023-01-29T07:44:38.428Z,101833.69
2023-01-29T07:47:17.271Z,101843.66
2023-01-29T07:49:44.503Z,101840.13
2023-01-29T07:52:13.447Z,101840.25
2023-01-29T07:54:44.937Z,101840.41
2023-01-29T07:57:11.311Z,101844.63
2023-01-29T07:59:40.658Z,101848.53
2023-01-29T08:02:11.419Z,101858.41
2023-01-29T08:04:40.654Z,101864.06
2023-01-29T08:07:17.097Z,101861.56
2023-01-29T08:09:54.885Z,101864.84
2023-01-29T08:12:47.760Z,101870.13
2023-01-29T08:15:16.524Z,101867.53
2023-01-29T08:17:57.209Z,101876.41
2023-01-29T08:20:30.724Z,101883.13
2023-01-29T08:23:10.411Z,101884.56
2023-01-29T08:25:42.191Z,101880.50
2023-01-29T08:28:09.271Z,101874.22
2023-01-29T08:30:39.562Z,101866.91
2023-01-29T08:33:06.364Z,101862.09
2023-01-29T08:35:38.449Z,101862.38
2023-01-29T08:38:05.817Z,101872.00
2023-01-29T08:40:36.046Z,101864.53
2023-01-29T08:43:10.774Z,101855.38
2023-01-29T08:45:48.353Z,101870.19
2023-01-29T08:48:15.220Z,101892.53
2023-01-29T08:50:42.025Z,101888.94
2023-01-29T08:53:24.447Z,101902.97
2023-01-29T08:55:51.001Z,101924.75
2023-01-29T08:58:18.161Z,101933.03
2023-01-29T09:00:45.434Z,101937.19
2023-01-29T09:03:15.449Z,101935.59
2023-01-29T09:05:46.831Z,101920.22
2023-01-29T09:08:13.833Z,101916.09
2023-01-29T09:10:40.748Z,101871.16
2023-01-29T09:13:12.415Z,101867.75
2023-01-29T09:15:38.981Z,101872.44
2023-01-29T09:18:06.109Z,101837.50
2023-01-29T09:20:33.640Z,101848.06
2023-01-29T09:23:08.658Z,101850.19
2023-01-29T09:25:39.324Z,101872.63
2023-01-29T09:28:06.387Z,101840.66
2023-01-29T09:30:34.600Z,101857.44
2023-01-29T09:33:01.466Z,101854.03
2023-01-29T09:35:30.071Z,101855.81
2023-01-29T09:37:56.955Z,101899.97
2023-01-29T09:40:35.462Z,101885.44
2023-01-29T09:43:13.541Z,101890.78
2023-01-29T09:45:52.011Z,101930.09
2023-01-29T09:48:20.980Z,101894.66
2023-01-29T09:50:55.115Z,101904.53
2023-01-29T09:53:29.724Z,101938.78
2023-01-29T09:56:02.326Z,101919.94
2023-01-29T09:58:41.668Z,101952.94
2023-01-29T10:01:36.869Z,101919.63
2023-01-29T10:04:06.510Z,101951.03
2023-01-29T10:07:02.686Z,101931.91
2023-01-29T10:09:44.311Z,101927.91
2023-01-29T10:12:29.678Z,101935.31
2023-01-29T10:15:33.197Z,101933.28
2023-01-29T10:18:05.779Z,101960.16
2023-01-29T10:21:00.228Z,101948.84
2023-01-29T10:23:38.347Z,101972.28
2023-01-29T10:26:07.149Z,101963.16
2023-01-29T10:28:47.494Z,101979.59
2023-01-29T10:31:27.979Z,101938.09
2023-01-29T10:34:07.262Z,101916.38
2023-01-29T10:36:42.774Z,101913.81
2023-01-29T10:39:17.345Z,101914.28
2023-01-29T10:42:12.959Z,101910.38
2023-01-29T10:45:04.320Z,101936.09
2023-01-29T10:48:09.626Z,101884.31
2023-01-29T10:50:52.989Z,101907.09
2023-01-29T10:53:25.083Z,101918.97
2023-01-29T10:56:21.958Z,101906.22
2023-01-29T10:58:54.427Z,101901.31
2023-01-29T11:01:20.968Z,101904.97
2023-01-29T11:03:56.706Z,101890.75
2023-01-29T11:06:29.279Z,101881.72
2023-01-29T11:12:10.885Z,101889.06
2023-01-29T11:14:55.573Z,101868.66
2023-01-29T11:17:24.332Z,101871.16
2023-01-29T11:19:55.574Z,101865.78
2023-01-29T11:22:29.714Z,101859.19
2023-01-29T11:25:21.758Z,101830.88
2023-01-29T11:27:53.308Z,101857.09
2023-01-29T11:30:24.977Z,101848.22
2023-01-29T11:33:09.073Z,101857.63
2023-01-29T11:35:36.605Z,101834.59
2023-01-29T11:38:17.010Z,101813.06
2023-01-29T11:40:44.675Z,101812.28
2023-01-29T11:43:30.247Z,101837.38
2023-01-29T11:46:23.160Z,101808.88
2023-01-29T11:48:58.977Z,101797.13
2023-01-29T11:51:29.840Z,101785.91
2023-01-29T11:54:05.936Z,101776.78
2023-01-29T11:56:42.673Z,101784.66
2023-01-29T11:59:24.338Z,101760.22
2023-01-29T12:01:54.476Z,101767.06
2023-01-29T12:04:24.472Z,101769.84
2023-01-29T12:06:54.444Z,101760.69
2023-01-29T12:09:24.236Z,101746.06
2023-01-29T12:11:52.510Z,101752.56
2023-01-29T12:14:25.576Z,101746.66
2023-01-29T12:17:15.244Z,101739.13
2023-01-29T12:19:50.160Z,101711.00
2023-01-29T12:22:28.529Z,101701.13
2023-01-29T12:24:55.103Z,101712.03
2023-01-29T12:27:30.973Z,101745.38
2023-01-29T12:30:22.479Z,101725.00
2023-01-29T12:33:03.366Z,101698.38
2023-01-29T12:35:34.979Z,101704.09
2023-01-29T12:38:14.540Z,101693.88
2023-01-29T12:40:47.362Z,101687.31
2023-01-29T12:43:16.904Z,101684.25
2023-01-29T12:45:49.803Z,101695.53
2023-01-29T12:48:22.474Z,101710.13
2023-01-29T12:50:52.186Z,101725.69
2023-01-29T12:53:31.593Z,101715.06
2023-01-29T12:56:04.573Z,101724.97
2023-01-29T12:58:45.121Z,101711.00
2023-01-29T13:01:20.207Z,101710.00
2023-01-29T13:04:06.337Z,101687.69
2023-01-29T13:06:59.311Z,101672.66
2023-01-29T13:09:28.898Z,101692.97
2023-01-29T13:12:11.417Z,101682.44
2023-01-29T13:14:43.336Z,101684.59
2023-01-29T13:17:20.913Z,101694.31
2023-01-29T13:19:51.630Z,101687.19
2023-01-29T13:22:31.975Z,101663.31
2023-01-29T13:25:05.134Z,101663.59
2023-01-29T13:27:42.000Z,101659.75
2023-01-29T13:30:23.643Z,101634.81
2023-01-29T13:32:52.848Z,101648.25
2023-01-29T13:35:22.647Z,101653.94
2023-01-29T13:37:54.071Z,101632.56
2023-01-29T13:40:34.511Z,101655.19
2023-01-29T13:43:06.917Z,101639.13
2023-01-29T13:45:42.491Z,101620.16
2023-01-29T13:48:32.512Z,101626.84
2023-01-29T13:51:04.493Z,101618.91
2023-01-29T13:53:37.160Z,101643.31
2023-01-29T13:56:28.777Z,101652.06
2023-01-29T13:58:56.959Z,101650.44
2023-01-29T14:01:49.527Z,101609.56
2023-01-29T14:04:19.184Z,101609.88
2023-01-29T14:06:51.635Z,101609.13
2023-01-29T14:09:30.710Z,101607.47
2023-01-29T14:11:57.396Z,101619.22
2023-01-29T14:14:48.800Z,101603.91
2023-01-29T14:17:17.396Z,101600.00
2023-01-29T14:19:52.308Z,101595.16
2023-01-29T14:22:28.335Z,101591.81
2023-01-29T14:24:59.694Z,101589.72
2023-01-29T14:27:26.433Z,101583.16
2023-01-29T14:30:00.751Z,101556.78
2023-01-29T14:32:27.379Z,101570.31
2023-01-29T14:35:02.678Z,101565.25
2023-01-29T14:37:34.929Z,101560.06
2023-01-29T14:40:19.454Z,101562.97
2023-01-29T14:43:00.973Z,101557.50
2023-01-29T14:45:27.415Z,101571.13
2023-01-29T14:48:05.949Z,101564.22
2023-01-29T14:50:34.964Z,101570.66
2023-01-29T14:53:06.261Z,101579.91
2023-01-29T14:55:43.970Z,101565.13
2023-01-29T14:58:35.511Z,101561.88
2023-01-29T15:01:07.065Z,101571.13
2023-01-29T15:04:02.748Z,101566.44
2023-01-29T15:06:33.912Z,101570.28
2023-01-29T15:09:11.005Z,101560.13
2023-01-29T15:11:48.665Z,101563.31
2023-01-29T15:14:52.068Z,101561.13
2023-01-29T15:17:25.119Z,101551.16
2023-01-29T15:19:53.724Z,101552.97
2023-01-29T15:22:21.894Z,101545.50
2023-01-29T15:25:05.478Z,101550.78
2023-01-29T15:27:32.131Z,101549.72
2023-01-29T15:30:05.685Z,101547.53
2023-01-29T15:32:54.058Z,101546.94
2023-01-29T15:35:35.540Z,101549.91
2023-01-29T15:38:14.414Z,101544.72
2023-01-29T15:40:41.199Z,101554.97
2023-01-29T15:43:26.313Z,101556.88
2023-01-29T15:46:00.050Z,101554.00
2023-01-29T15:48:34.865Z,101562.34
2023-01-29T15:51:04.684Z,101554.66
2023-01-29T15:53:36.502Z,101563.94
2023-01-29T15:56:09.265Z,101564.13
2023-01-29T15:58:35.814Z,101560.25
2023-01-29T16:01:05.398Z,101556.03
2023-01-29T16:03:34.417Z,101551.13
2023-01-29T16:06:01.839Z,101550.84
2023-01-29T16:08:28.743Z,101548.34
2023-01-29T16:10:57.862Z,101536.22
2023-01-29T16:13:27.683Z,101537.41
2023-01-29T16:16:02.625Z,101533.25
2023-01-29T16:18:36.444Z,101528.06
2023-01-29T16:21:08.740Z,101519.63
2023-01-29T16:23:40.367Z,101511.97
2023-01-29T16:26:16.723Z,101516.19
2023-01-29T16:28:45.048Z,101518.63
2023-01-29T16:31:14.010Z,101515.94
2023-01-29T16:33:43.187Z,101518.03
2023-01-29T16:36:19.023Z,101514.91
2023-01-29T16:38:51.117Z,101517.84
2023-01-29T16:41:26.357Z,101515.44
2023-01-29T16:43:56.469Z,101509.94
2023-01-29T16:46:35.799Z,101513.03
2023-01-29T16:49:23.021Z,101505.94
2023-01-29T16:51:49.363Z,101499.97
2023-01-29T16:54:21.228Z,101501.09
2023-01-29T16:56:50.102Z,101498.72
2023-01-29T16:59:26.754Z,101491.81
2023-01-29T17:01:55.742Z,101491.28
2023-01-29T17:04:22.605Z,101487.66
2023-01-29T17:06:54.175Z,101488.69
2023-01-29T17:09:35.513Z,101497.75
2023-01-29T17:12:06.449Z,101486.97
2023-01-29T17:14:34.350Z,101493.69
2023-01-29T17:17:15.474Z,101489.44
2023-01-29T17:19:41.834Z,101496.28
2023-01-29T17:22:14.731Z,101495.66
2023-01-29T17:24:42.243Z,101491.63
2023-01-29T17:27:18.411Z,101499.03
2023-01-29T17:29:53.610Z,101495.94
2023-01-29T17:32:20.192Z,101500.25
2023-01-29T17:34:49.471Z,101499.13
2023-01-29T17:37:16.822Z,101503.88
2023-01-29T17:39:53.127Z,101497.31
2023-01-29T17:42:20.170Z,101493.75
2023-01-29T17:44:46.816Z,101494.53
2023-01-29T17:47:15.182Z,101503.84
2023-01-29T17:49:42.026Z,101511.00
2023-01-29T17:52:09.594Z,101519.34
2023-01-29T17:54:36.311Z,101522.03
2023-01-29T17:57:02.832Z,101530.06
2023-01-29T17:59:32.314Z,101535.13
2023-01-29T18:01:59.062Z,101535.88
2023-01-29T18:04:26.307Z,101535.53
2023-01-29T18:06:56.856Z,101540.22
2023-01-29T18:09:25.765Z,101540.50
2023-01-29T18:11:53.524Z,101545.69
2023-01-29T18:14:20.371Z,101554.16
2023-01-29T18:16:50.071Z,101556.38
2023-01-29T18:19:23.115Z,101554.56
2023-01-29T18:21:56.843Z,101556.88
2023-01-29T18:24:26.923Z,101553.88
2023-01-29T18:26:54.214Z,101558.72
2023-01-29T18:29:23.003Z,101557.16
2023-01-29T18:31:50.316Z,101555.13
2023-01-29T18:34:17.104Z,101555.44
2023-01-29T18:36:46.927Z,101554.09
2023-01-29T18:39:14.964Z,101546.03
2023-01-29T18:41:41.712Z,101552.38
2023-01-29T18:44:09.859Z,101546.88
2023-01-29T18:46:36.452Z,101545.00
2023-01-29T18:49:02.952Z,101542.88
2023-01-29T18:51:29.482Z,101545.53
2023-01-29T18:53:55.984Z,101542.38
2023-01-29T18:56:22.443Z,101547.97
2023-01-29T18:58:55.320Z,101544.28
2023-01-29T19:01:22.791Z,101534.38
2023-01-29T19:03:49.802Z,101540.03
2023-01-29T19:06:16.405Z,101537.22
2023-01-29T19:08:44.092Z,101534.00
2023-01-29T19:11:16.087Z,101529.91
2023-01-29T19:13:46.231Z,101540.75
2023-01-29T19:16:13.507Z,101538.94
2023-01-29T19:18:42.899Z,101536.63
2023-01-29T19:21:12.653Z,101533.97
2023-01-29T19:23:40.018Z,101535.09
2023-01-29T19:26:07.029Z,101536.91
2023-01-29T19:28:33.963Z,101531.69
2023-01-29T19:31:03.839Z,101539.06
2023-01-29T19:33:30.414Z,101539.84
2023-01-29T19:36:06.725Z,101545.50
2023-01-29T19:38:38.087Z,101532.16
2023-01-29T19:41:05.772Z,101533.25
2023-01-29T19:43:32.254Z,101533.56
2023-01-29T19:46:00.691Z,101528.06
2023-01-29T19:48:28.218Z,101518.31
2023-01-29T19:51:04.346Z,101521.22
2023-01-29T19:53:31.963Z,101526.50
2023-01-29T19:56:02.718Z,101515.72
2023-01-29T19:58:30.393Z,101514.25
2023-01-29T20:00:59.515Z,101513.88
2023-01-29T20:03:27.146Z,101521.72
2023-01-29T20:05:53.759Z,101513.75
2023-01-29T20:08:20.635Z,101518.47
2023-01-29T20:10:50.174Z,101514.41
2023-01-29T20:13:16.791Z,101516.19
2023-01-29T20:15:48.146Z,101507.38
2023-01-29T20:18:15.478Z,101512.88
2023-01-29T20:20:44.299Z,101520.16
2023-01-29T20:23:12.060Z,101520.25
2023-01-29T20:25:39.223Z,101520.81
2023-01-29T20:28:10.076Z,101522.78
2023-01-29T20:30:36.600Z,101515.13
2023-01-29T20:33:03.135Z,101520.31
2023-01-29T20:35:33.317Z,101509.72
2023-01-29T20:38:00.488Z,101510.66
2023-01-29T20:40:27.107Z,101512.53
2023-01-29T20:42:56.177Z,101506.63
2023-01-29T20:45:25.185Z,101503.97
2023-01-29T20:47:51.770Z,101501.47
2023-01-29T20:50:19.903Z,101496.91
2023-01-29T20:52:47.564Z,101499.78
2023-01-29T20:55:14.321Z,101497.00
2023-01-29T20:57:40.846Z,101497.81
2023-01-29T21:00:08.454Z,101498.78
2023-01-29T21:02:39.998Z,101497.22
2023-01-29T21:05:06.789Z,101496.28
2023-01-29T21:07:33.356Z,101511.47
2023-01-29T21:09:59.771Z,101496.28
2023-01-29T21:12:26.225Z,101511.63
2023-01-29T21:14:52.783Z,101507.31
2023-01-29T21:17:19.333Z,101502.03
2023-01-29T21:19:46.059Z,101502.09
2023-01-29T21:22:12.498Z,101500.16
2023-01-29T21:24:38.927Z,101508.31
2023-01-29T21:27:05.556Z,101504.72
2023-01-29T21:29:32.065Z,101509.25
2023-01-29T21:31:58.531Z,101499.22
2023-01-29T21:34:29.966Z,101502.81
2023-01-29T21:36:57.402Z,101491.69
2023-01-29T21:39:26.271Z,101490.88
2023-01-29T21:42:11.810Z,101478.47
2023-01-29T21:44:38.301Z,101480.41
2023-01-29T21:47:22.667Z,101487.28
2023-01-29T21:49:49.177Z,101480.88
2023-01-29T21:52:16.075Z,101478.91
2023-01-29T21:54:45.859Z,101464.22
2023-01-29T21:57:14.872Z,101468.97
2023-01-29T21:59:42.494Z,101468.13
2023-01-29T22:02:17.954Z,101463.09
2023-01-29T22:04:47.123Z,101458.75
2023-01-29T22:07:13.953Z,101450.91
2023-01-29T22:09:41.066Z,101442.03
2023-01-29T22:12:08.706Z,101431.38
2023-01-29T22:14:37.414Z,101434.91
2023-01-29T22:17:04.056Z,101428.81
2023-01-29T22:19:32.891Z,101420.66
2023-01-29T22:22:02.177Z,101425.78
2023-01-29T22:24:29.022Z,101426.34
2023-01-29T22:26:55.413Z,101421.44
2023-01-29T22:29:22.029Z,101419.72
2023-01-29T22:31:50.868Z,101423.09
2023-01-29T22:34:17.475Z,101425.78
2023-01-29T22:36:43.887Z,101430.94
2023-01-29T22:39:10.684Z,101419.41
2023-01-29T22:41:37.458Z,101415.22
2023-01-29T22:44:06.333Z,101407.13
2023-01-29T22:46:35.074Z,101412.44
2023-01-29T22:49:01.937Z,101412.28
2023-01-29T22:51:28.317Z,101408.59
2023-01-29T22:53:56.134Z,101412.06
2023-01-29T22:56:25.404Z,101412.19
2023-01-29T22:58:56.714Z,101404.44
2023-01-29T23:01:25.807Z,101402.56
2023-01-29T23:03:53.539Z,101390.16
2023-01-29T23:06:21.705Z,101390.97
2023-01-29T23:08:48.733Z,101383.75
2023-01-29T23:11:18.593Z,101381.16
2023-01-29T23:13:46.620Z,101375.59
2023-01-29T23:16:14.740Z,101370.75
2023-01-29T23:18:41.583Z,101378.47
2023-01-29T23:21:10.847Z,101368.56
2023-01-29T23:23:38.551Z,101362.56
2023-01-29T23:26:26.127Z,101359.72
2023-01-29T23:28:52.747Z,101350.06
2023-01-29T23:31:19.268Z,101351.66
2023-01-29T23:33:45.715Z,101358.84
2023-01-29T23:36:12.512Z,101364.78
2023-01-29T23:38:39.012Z,101359.91
2023-01-29T23:41:05.609Z,101354.00
2023-01-29T23:43:32.265Z,101339.78
2023-01-29T23:45:58.992Z,101330.53
2023-01-29T23:48:25.403Z,101318.75
2023-01-29T23:50:52.127Z,101324.53
2023-01-29T23:53:18.752Z,101321.69
2023-01-29T23:55:59.834Z,101314.31
2023-01-29T23:58:32.457Z,101318.53
